sensor_id;sensor_type;location;lat;lon;timestamp;P1;durP1;ratioP1;P2;durP2;ratioP2
21564;SDS011;10943;48.738;9.320;2022-09-21T00:01:29;16.77;;;6.35;;
21564;SDS011;10943;48.738;9.320;2022-09-21T00:03:59;13.90;;;6.28;;
21564;SDS011;10943;48.738;9.320;2022-09-21T00:06:30;13.60;;;6.60;;
21564;SDS011;10943;48.738;9.320;2022-09-21T00:09:00;15.73;;;6.70;;
21564;SDS011;10943;48.738;9.320;2022-09-21T00:11:31;12.05;;;6.50;;
21564;SDS011;10943;48.738;9.320;2022-09-21T00:14:03;13.63;;;7.05;;
21564;SDS011;10943;48.738;9.320;2022-09-21T00:16:38;13.07;;;6.70;;
21564;SDS011;10943;48.738;9.320;2022-09-21T00:19:08;15.20;;;6.75;;
21564;SDS011;10943;48.738;9.320;2022-09-21T00:21:36;14.75;;;7.00;;
21564;SDS011;10943;48.738;9.320;2022-09-21T00:24:04;11.20;;;5.95;;
21564;SDS011;10943;48.738;9.320;2022-09-21T00:26:33;17.30;;;6.60;;
21564;SDS011;10943;48.738;9.320;2022-09-21T00:29:04;13.70;;;6.60;;
21564;SDS011;10943;48.738;9.320;2022-09-21T00:31:32;13.07;;;6.68;;
21564;SDS011;10943;48.738;9.320;2022-09-21T00:34:00;12.52;;;7.60;;
21564;SDS011;10943;48.738;9.320;2022-09-21T00:36:29;14.30;;;7.22;;
21564;SDS011;10943;48.738;9.320;2022-09-21T00:38:57;12.88;;;5.97;;
21564;SDS011;10943;48.738;9.320;2022-09-21T00:41:28;13.80;;;6.97;;
21564;SDS011;10943;48.738;9.320;2022-09-21T00:46:53;12.48;;;5.57;;
21564;SDS011;10943;48.738;9.320;2022-09-21T00:49:30;9.77;;;5.80;;
21564;SDS011;10943;48.738;9.320;2022-09-21T00:52:00;10.52;;;5.60;;
21564;SDS011;10943;48.738;9.320;2022-09-21T00:54:35;12.48;;;5.53;;
21564;SDS011;10943;48.738;9.320;2022-09-21T00:57:14;10.40;;;5.78;;
21564;SDS011;10943;48.738;9.320;2022-09-21T00:59:47;11.43;;;5.90;;
21564;SDS011;10943;48.738;9.320;2022-09-21T01:02:21;9.57;;;5.57;;
21564;SDS011;10943;48.738;9.320;2022-09-21T01:04:50;10.60;;;5.80;;
21564;SDS011;10943;48.738;9.320;2022-09-21T01:07:24;14.00;;;5.65;;
21564;SDS011;10943;48.738;9.320;2022-09-21T01:09:56;10.70;;;5.50;;
21564;SDS011;10943;48.738;9.320;2022-09-21T01:12:34;12.40;;;5.95;;
21564;SDS011;10943;48.738;9.320;2022-09-21T01:21:07;11.07;;;6.10;;
21564;SDS011;10943;48.738;9.320;2022-09-21T01:29:42;12.55;;;6.80;;
21564;SDS011;10943;48.738;9.320;2022-09-21T01:32:25;12.40;;;6.45;;
21564;SDS011;10943;48.738;9.320;2022-09-21T01:35:12;10.85;;;6.10;;
21564;SDS011;10943;48.738;9.320;2022-09-21T01:37:52;10.25;;;6.35;;
21564;SDS011;10943;48.738;9.320;2022-09-21T01:40:31;12.32;;;6.18;;
21564;SDS011;10943;48.738;9.320;2022-09-21T01:43:09;12.52;;;6.30;;
21564;SDS011;10943;48.738;9.320;2022-09-21T01:45:46;12.40;;;6.07;;
21564;SDS011;10943;48.738;9.320;2022-09-21T01:48:20;14.43;;;6.30;;
21564;SDS011;10943;48.738;9.320;2022-09-21T01:50:53;11.82;;;5.90;;
21564;SDS011;10943;48.738;9.320;2022-09-21T01:56:04;12.13;;;5.93;;
21564;SDS011;10943;48.738;9.320;2022-09-21T01:58:51;12.95;;;6.57;;
21564;SDS011;10943;48.738;9.320;2022-09-21T02:01:37;14.50;;;6.35;;
21564;SDS011;10943;48.738;9.320;2022-09-21T02:04:15;14.23;;;6.78;;
21564;SDS011;10943;48.738;9.320;2022-09-21T02:06:45;11.10;;;6.40;;
21564;SDS011;10943;48.738;9.320;2022-09-21T02:09:15;10.68;;;6.25;;
21564;SDS011;10943;48.738;9.320;2022-09-21T02:11:44;14.20;;;6.80;;
21564;SDS011;10943;48.738;9.320;2022-09-21T02:14:14;11.10;;;6.45;;
21564;SDS011;10943;48.738;9.320;2022-09-21T02:19:30;10.07;;;5.97;;
21564;SDS011;10943;48.738;9.320;2022-09-21T02:28:28;12.90;;;6.63;;
21564;SDS011;10943;48.738;9.320;2022-09-21T02:31:25;14.55;;;6.38;;
21564;SDS011;10943;48.738;9.320;2022-09-21T02:34:18;13.45;;;6.85;;
21564;SDS011;10943;48.738;9.320;2022-09-21T02:37:01;9.50;;;6.47;;
21564;SDS011;10943;48.738;9.320;2022-09-21T02:40:03;14.85;;;6.93;;
21564;SDS011;10943;48.738;9.320;2022-09-21T02:42:53;12.43;;;6.30;;
21564;SDS011;10943;48.738;9.320;2022-09-21T02:45:33;14.80;;;7.30;;
21564;SDS011;10943;48.738;9.320;2022-09-21T02:48:12;12.77;;;6.88;;
21564;SDS011;10943;48.738;9.320;2022-09-21T02:50:51;12.20;;;7.30;;
21564;SDS011;10943;48.738;9.320;2022-09-21T02:53:26;11.90;;;7.57;;
21564;SDS011;10943;48.738;9.320;2022-09-21T02:56:02;13.93;;;7.15;;
21564;SDS011;10943;48.738;9.320;2022-09-21T02:58:35;12.43;;;7.18;;
21564;SDS011;10943;48.738;9.320;2022-09-21T03:01:09;12.10;;;7.03;;
21564;SDS011;10943;48.738;9.320;2022-09-21T03:03:39;11.23;;;7.25;;
21564;SDS011;10943;48.738;9.320;2022-09-21T03:06:08;14.50;;;7.97;;
21564;SDS011;10943;48.738;9.320;2022-09-21T03:08:35;12.63;;;7.05;;
21564;SDS011;10943;48.738;9.320;2022-09-21T03:11:03;11.25;;;7.07;;
21564;SDS011;10943;48.738;9.320;2022-09-21T03:13:31;12.77;;;6.80;;
21564;SDS011;10943;48.738;9.320;2022-09-21T03:16:01;12.45;;;6.90;;
21564;SDS011;10943;48.738;9.320;2022-09-21T03:18:33;20.13;;;7.05;;
21564;SDS011;10943;48.738;9.320;2022-09-21T03:21:01;13.05;;;6.88;;
21564;SDS011;10943;48.738;9.320;2022-09-21T03:23:29;14.10;;;6.90;;
21564;SDS011;10943;48.738;9.320;2022-09-21T03:25:57;13.88;;;6.55;;
21564;SDS011;10943;48.738;9.320;2022-09-21T03:28:25;15.38;;;7.32;;
21564;SDS011;10943;48.738;9.320;2022-09-21T03:30:52;12.65;;;6.65;;
21564;SDS011;10943;48.738;9.320;2022-09-21T03:33:20;13.32;;;7.45;;
21564;SDS011;10943;48.738;9.320;2022-09-21T03:35:47;17.00;;;8.10;;
21564;SDS011;10943;48.738;9.320;2022-09-21T03:38:16;15.65;;;7.88;;
21564;SDS011;10943;48.738;9.320;2022-09-21T03:40:47;12.35;;;7.45;;
21564;SDS011;10943;48.738;9.320;2022-09-21T03:43:16;14.25;;;7.22;;
21564;SDS011;10943;48.738;9.320;2022-09-21T03:45:44;12.48;;;7.03;;
21564;SDS011;10943;48.738;9.320;2022-09-21T03:48:13;14.23;;;7.30;;
21564;SDS011;10943;48.738;9.320;2022-09-21T03:50:42;11.80;;;6.70;;
21564;SDS011;10943;48.738;9.320;2022-09-21T03:53:10;13.38;;;7.68;;
21564;SDS011;10943;48.738;9.320;2022-09-21T03:55:37;14.98;;;8.30;;
21564;SDS011;10943;48.738;9.320;2022-09-21T03:58:05;12.10;;;7.75;;
21564;SDS011;10943;48.738;9.320;2022-09-21T04:00:33;12.32;;;7.90;;
21564;SDS011;10943;48.738;9.320;2022-09-21T04:03:01;13.98;;;7.97;;
21564;SDS011;10943;48.738;9.320;2022-09-21T04:05:29;15.88;;;8.75;;
21564;SDS011;10943;48.738;9.320;2022-09-21T04:07:56;15.02;;;8.45;;
21564;SDS011;10943;48.738;9.320;2022-09-21T04:10:24;17.67;;;8.32;;
21564;SDS011;10943;48.738;9.320;2022-09-21T04:13:00;19.83;;;9.20;;
21564;SDS011;10943;48.738;9.320;2022-09-21T04:15:30;14.27;;;8.25;;
21564;SDS011;10943;48.738;9.320;2022-09-21T04:17:58;15.52;;;8.55;;
21564;SDS011;10943;48.738;9.320;2022-09-21T04:20:25;18.67;;;9.07;;
21564;SDS011;10943;48.738;9.320;2022-09-21T04:22:53;19.52;;;9.20;;
21564;SDS011;10943;48.738;9.320;2022-09-21T04:25:20;17.48;;;9.82;;
21564;SDS011;10943;48.738;9.320;2022-09-21T04:27:48;17.40;;;10.48;;
21564;SDS011;10943;48.738;9.320;2022-09-21T04:30:16;16.30;;;9.65;;
21564;SDS011;10943;48.738;9.320;2022-09-21T04:32:44;19.52;;;9.75;;
21564;SDS011;10943;48.738;9.320;2022-09-21T04:35:12;17.35;;;10.73;;
21564;SDS011;10943;48.738;9.320;2022-09-21T04:37:39;19.45;;;10.52;;
21564;SDS011;10943;48.738;9.320;2022-09-21T04:40:07;18.75;;;11.35;;
21564;SDS011;10943;48.738;9.320;2022-09-21T04:42:35;20.05;;;12.32;;
21564;SDS011;10943;48.738;9.320;2022-09-21T04:45:03;20.50;;;10.95;;
21564;SDS011;10943;48.738;9.320;2022-09-21T04:47:31;18.92;;;10.55;;
21564;SDS011;10943;48.738;9.320;2022-09-21T04:49:59;20.27;;;11.95;;
21564;SDS011;10943;48.738;9.320;2022-09-21T04:52:27;20.17;;;12.23;;
21564;SDS011;10943;48.738;9.320;2022-09-21T04:54:54;19.80;;;10.90;;
21564;SDS011;10943;48.738;9.320;2022-09-21T04:57:22;22.30;;;12.98;;
21564;SDS011;10943;48.738;9.320;2022-09-21T04:59:50;28.23;;;12.60;;
21564;SDS011;10943;48.738;9.320;2022-09-21T05:02:18;23.05;;;12.15;;
21564;SDS011;10943;48.738;9.320;2022-09-21T05:04:45;23.38;;;12.10;;
21564;SDS011;10943;48.738;9.320;2022-09-21T05:07:16;20.67;;;12.35;;
21564;SDS011;10943;48.738;9.320;2022-09-21T05:09:44;21.38;;;11.68;;
21564;SDS011;10943;48.738;9.320;2022-09-21T05:12:32;17.73;;;11.00;;
21564;SDS011;10943;48.738;9.320;2022-09-21T05:15:06;18.75;;;10.98;;
21564;SDS011;10943;48.738;9.320;2022-09-21T05:17:36;19.05;;;10.73;;
21564;SDS011;10943;48.738;9.320;2022-09-21T05:20:04;21.38;;;12.60;;
21564;SDS011;10943;48.738;9.320;2022-09-21T05:22:32;23.58;;;10.65;;
21564;SDS011;10943;48.738;9.320;2022-09-21T05:25:00;22.98;;;11.52;;
21564;SDS011;10943;48.738;9.320;2022-09-21T05:27:27;20.73;;;12.05;;
21564;SDS011;10943;48.738;9.320;2022-09-21T05:29:54;20.15;;;10.70;;
21564;SDS011;10943;48.738;9.320;2022-09-21T05:38:11;17.40;;;9.85;;
21564;SDS011;10943;48.738;9.320;2022-09-21T05:40:45;17.35;;;8.73;;
21564;SDS011;10943;48.738;9.320;2022-09-21T05:43:15;16.85;;;9.57;;
21564;SDS011;10943;48.738;9.320;2022-09-21T05:45:45;17.15;;;10.30;;
21564;SDS011;10943;48.738;9.320;2022-09-21T05:48:26;18.02;;;10.15;;
21564;SDS011;10943;48.738;9.320;2022-09-21T05:57:04;25.73;;;14.75;;
21564;SDS011;10943;48.738;9.320;2022-09-21T06:00:03;27.35;;;14.88;;
21564;SDS011;10943;48.738;9.320;2022-09-21T06:05:44;27.63;;;14.82;;
21564;SDS011;10943;48.738;9.320;2022-09-21T06:08:11;23.77;;;13.10;;
21564;SDS011;10943;48.738;9.320;2022-09-21T06:10:39;22.08;;;12.90;;
21564;SDS011;10943;48.738;9.320;2022-09-21T06:13:07;20.15;;;11.60;;
21564;SDS011;10943;48.738;9.320;2022-09-21T06:15:34;17.65;;;10.98;;
21564;SDS011;10943;48.738;9.320;2022-09-21T06:18:06;17.13;;;10.20;;
21564;SDS011;10943;48.738;9.320;2022-09-21T06:20:41;14.20;;;8.80;;
21564;SDS011;10943;48.738;9.320;2022-09-21T06:23:09;16.10;;;8.50;;
21564;SDS011;10943;48.738;9.320;2022-09-21T06:25:42;14.82;;;8.98;;
21564;SDS011;10943;48.738;9.320;2022-09-21T06:28:11;16.27;;;9.55;;
21564;SDS011;10943;48.738;9.320;2022-09-21T06:30:39;11.55;;;7.85;;
21564;SDS011;10943;48.738;9.320;2022-09-21T06:33:08;15.15;;;8.15;;
21564;SDS011;10943;48.738;9.320;2022-09-21T06:35:36;13.20;;;7.20;;
21564;SDS011;10943;48.738;9.320;2022-09-21T06:38:04;15.25;;;7.70;;
21564;SDS011;10943;48.738;9.320;2022-09-21T06:40:34;11.65;;;7.28;;
21564;SDS011;10943;48.738;9.320;2022-09-21T06:43:03;16.83;;;7.32;;
21564;SDS011;10943;48.738;9.320;2022-09-21T06:45:31;15.52;;;7.15;;
21564;SDS011;10943;48.738;9.320;2022-09-21T06:47:59;11.82;;;6.80;;
21564;SDS011;10943;48.738;9.320;2022-09-21T06:50:26;12.43;;;6.85;;
21564;SDS011;10943;48.738;9.320;2022-09-21T06:52:54;9.45;;;6.32;;
21564;SDS011;10943;48.738;9.320;2022-09-21T06:55:21;10.98;;;6.95;;
21564;SDS011;10943;48.738;9.320;2022-09-21T06:57:48;13.35;;;6.10;;
21564;SDS011;10943;48.738;9.320;2022-09-21T07:00:17;9.07;;;6.15;;
21564;SDS011;10943;48.738;9.320;2022-09-21T07:02:49;9.57;;;5.15;;
21564;SDS011;10943;48.738;9.320;2022-09-21T07:05:16;8.45;;;4.70;;
21564;SDS011;10943;48.738;9.320;2022-09-21T07:07:44;7.47;;;3.90;;
21564;SDS011;10943;48.738;9.320;2022-09-21T07:10:11;7.65;;;3.92;;
21564;SDS011;10943;48.738;9.320;2022-09-21T07:12:45;5.40;;;3.15;;
21564;SDS011;10943;48.738;9.320;2022-09-21T07:15:14;6.50;;;3.53;;
21564;SDS011;10943;48.738;9.320;2022-09-21T07:17:42;7.82;;;3.05;;
21564;SDS011;10943;48.738;9.320;2022-09-21T07:20:17;6.90;;;2.58;;
21564;SDS011;10943;48.738;9.320;2022-09-21T07:22:44;7.30;;;2.72;;
21564;SDS011;10943;48.738;9.320;2022-09-21T07:25:11;5.70;;;2.80;;
21564;SDS011;10943;48.738;9.320;2022-09-21T07:27:40;6.60;;;3.10;;
21564;SDS011;10943;48.738;9.320;2022-09-21T07:30:07;8.40;;;3.05;;
21564;SDS011;10943;48.738;9.320;2022-09-21T07:32:36;7.57;;;3.17;;
21564;SDS011;10943;48.738;9.320;2022-09-21T07:35:07;8.02;;;2.85;;
21564;SDS011;10943;48.738;9.320;2022-09-21T07:37:35;7.88;;;2.70;;
21564;SDS011;10943;48.738;9.320;2022-09-21T07:40:02;5.03;;;2.53;;
21564;SDS011;10943;48.738;9.320;2022-09-21T07:42:31;5.68;;;2.40;;
21564;SDS011;10943;48.738;9.320;2022-09-21T07:44:59;5.50;;;2.78;;
21564;SDS011;10943;48.738;9.320;2022-09-21T07:47:31;4.85;;;2.65;;
21564;SDS011;10943;48.738;9.320;2022-09-21T07:49:59;6.75;;;3.30;;
21564;SDS011;10943;48.738;9.320;2022-09-21T07:52:26;5.30;;;2.58;;
21564;SDS011;10943;48.738;9.320;2022-09-21T07:54:54;5.75;;;2.20;;
21564;SDS011;10943;48.738;9.320;2022-09-21T07:57:21;6.80;;;2.58;;
21564;SDS011;10943;48.738;9.320;2022-09-21T08:00:09;8.98;;;2.47;;
21564;SDS011;10943;48.738;9.320;2022-09-21T08:02:38;5.05;;;2.63;;
21564;SDS011;10943;48.738;9.320;2022-09-21T08:05:14;6.60;;;2.80;;
21564;SDS011;10943;48.738;9.320;2022-09-21T08:07:42;8.60;;;2.97;;
21564;SDS011;10943;48.738;9.320;2022-09-21T08:10:10;6.97;;;2.40;;
21564;SDS011;10943;48.738;9.320;2022-09-21T08:12:38;4.43;;;2.30;;
21564;SDS011;10943;48.738;9.320;2022-09-21T08:15:07;7.53;;;2.80;;
21564;SDS011;10943;48.738;9.320;2022-09-21T08:17:56;5.57;;;2.90;;
21564;SDS011;10943;48.738;9.320;2022-09-21T08:20:26;5.43;;;2.80;;
21564;SDS011;10943;48.738;9.320;2022-09-21T08:22:54;6.15;;;2.50;;
21564;SDS011;10943;48.738;9.320;2022-09-21T08:25:22;4.78;;;2.30;;
21564;SDS011;10943;48.738;9.320;2022-09-21T08:27:50;7.07;;;2.70;;
21564;SDS011;10943;48.738;9.320;2022-09-21T08:30:19;10.10;;;2.97;;
21564;SDS011;10943;48.738;9.320;2022-09-21T08:32:47;5.85;;;2.33;;
21564;SDS011;10943;48.738;9.320;2022-09-21T08:35:17;5.40;;;2.40;;
21564;SDS011;10943;48.738;9.320;2022-09-21T08:37:45;6.95;;;3.10;;
21564;SDS011;10943;48.738;9.320;2022-09-21T08:40:12;8.23;;;3.30;;
21564;SDS011;10943;48.738;9.320;2022-09-21T08:42:47;6.40;;;3.10;;
21564;SDS011;10943;48.738;9.320;2022-09-21T08:45:29;5.07;;;2.67;;
21564;SDS011;10943;48.738;9.320;2022-09-21T08:48:07;7.63;;;2.90;;
21564;SDS011;10943;48.738;9.320;2022-09-21T08:50:58;6.63;;;2.65;;
21564;SDS011;10943;48.738;9.320;2022-09-21T08:53:35;8.05;;;2.70;;
21564;SDS011;10943;48.738;9.320;2022-09-21T08:56:11;6.03;;;2.88;;
21564;SDS011;10943;48.738;9.320;2022-09-21T08:58:41;5.97;;;3.15;;
21564;SDS011;10943;48.738;9.320;2022-09-21T09:01:27;7.13;;;2.70;;
21564;SDS011;10943;48.738;9.320;2022-09-21T09:04:33;7.63;;;3.15;;
21564;SDS011;10943;48.738;9.320;2022-09-21T09:16:07;6.78;;;2.00;;
21564;SDS011;10943;48.738;9.320;2022-09-21T09:18:52;4.30;;;1.60;;
21564;SDS011;10943;48.738;9.320;2022-09-21T09:21:44;5.55;;;2.00;;
21564;SDS011;10943;48.738;9.320;2022-09-21T09:24:14;5.40;;;1.27;;
21564;SDS011;10943;48.738;9.320;2022-09-21T09:27:07;3.90;;;1.70;;
21564;SDS011;10943;48.738;9.320;2022-09-21T09:29:53;4.13;;;1.17;;
21564;SDS011;10943;48.738;9.320;2022-09-21T09:35:59;5.95;;;1.02;;
21564;SDS011;10943;48.738;9.320;2022-09-21T09:38:37;3.10;;;0.80;;
21564;SDS011;10943;48.738;9.320;2022-09-21T09:52:41;2.70;;;0.70;;
21564;SDS011;10943;48.738;9.320;2022-09-21T09:57:53;2.63;;;0.60;;
21564;SDS011;10943;48.738;9.320;2022-09-21T10:00:22;2.00;;;0.60;;
21564;SDS011;10943;48.738;9.320;2022-09-21T10:05:34;3.25;;;0.70;;
21564;SDS011;10943;48.738;9.320;2022-09-21T10:08:04;2.80;;;0.60;;
21564;SDS011;10943;48.738;9.320;2022-09-21T10:10:33;2.70;;;0.70;;
21564;SDS011;10943;48.738;9.320;2022-09-21T10:16:01;2.42;;;0.57;;
21564;SDS011;10943;48.738;9.320;2022-09-21T10:18:47;3.70;;;0.70;;
21564;SDS011;10943;48.738;9.320;2022-09-21T10:21:26;2.97;;;0.70;;
21564;SDS011;10943;48.738;9.320;2022-09-21T10:24:04;2.53;;;0.75;;
21564;SDS011;10943;48.738;9.320;2022-09-21T10:26:53;4.22;;;0.90;;
21564;SDS011;10943;48.738;9.320;2022-09-21T10:29:39;3.08;;;0.80;;
21564;SDS011;10943;48.738;9.320;2022-09-21T10:35:24;3.22;;;0.80;;
21564;SDS011;10943;48.738;9.320;2022-09-21T10:37:44;4.68;;;1.00;;
21564;SDS011;10943;48.738;9.320;2022-09-21T10:42:57;2.85;;;0.80;;
21564;SDS011;10943;48.738;9.320;2022-09-21T10:45:27;3.92;;;1.00;;
21564;SDS011;10943;48.738;9.320;2022-09-21T10:48:07;2.90;;;0.82;;
21564;SDS011;10943;48.738;9.320;2022-09-21T11:02:22;2.75;;;0.70;;
21564;SDS011;10943;48.738;9.320;2022-09-21T11:05:11;4.10;;;0.82;;
21564;SDS011;10943;48.738;9.320;2022-09-21T11:07:53;2.40;;;0.80;;
21564;SDS011;10943;48.738;9.320;2022-09-21T11:10:45;2.78;;;0.73;;
21564;SDS011;10943;48.738;9.320;2022-09-21T11:13:51;2.90;;;0.77;;
21564;SDS011;10943;48.738;9.320;2022-09-21T11:22:07;2.67;;;0.75;;
21564;SDS011;10943;48.738;9.320;2022-09-21T11:34:21;3.78;;;0.70;;
21564;SDS011;10943;48.738;9.320;2022-09-21T11:37:32;5.60;;;0.88;;
21564;SDS011;10943;48.738;9.320;2022-09-21T11:43:16;3.28;;;0.85;;
21564;SDS011;10943;48.738;9.320;2022-09-21T12:00:03;2.20;;;0.70;;
21564;SDS011;10943;48.738;9.320;2022-09-21T12:05:58;4.07;;;0.55;;
21564;SDS011;10943;48.738;9.320;2022-09-21T12:14:00;2.67;;;0.50;;
21564;SDS011;10943;48.738;9.320;2022-09-21T12:20:11;2.58;;;0.82;;
21564;SDS011;10943;48.738;9.320;2022-09-21T12:22:57;2.45;;;0.70;;
21564;SDS011;10943;48.738;9.320;2022-09-21T12:25:36;4.18;;;0.50;;
21564;SDS011;10943;48.738;9.320;2022-09-21T12:31:17;3.55;;;0.50;;
21564;SDS011;10943;48.738;9.320;2022-09-21T12:34:00;2.20;;;0.55;;
21564;SDS011;10943;48.738;9.320;2022-09-21T12:36:46;2.00;;;0.50;;
21564;SDS011;10943;48.738;9.320;2022-09-21T12:48:05;1.75;;;0.45;;
21564;SDS011;10943;48.738;9.320;2022-09-21T12:53:48;1.95;;;0.40;;
21564;SDS011;10943;48.738;9.320;2022-09-21T12:56:23;2.33;;;0.52;;
21564;SDS011;10943;48.738;9.320;2022-09-21T13:01:49;1.85;;;0.47;;
21564;SDS011;10943;48.738;9.320;2022-09-21T13:04:31;2.05;;;0.60;;
21564;SDS011;10943;48.738;9.320;2022-09-21T13:13:13;3.38;;;0.60;;
21564;SDS011;10943;48.738;9.320;2022-09-21T13:16:22;3.60;;;0.80;;
21564;SDS011;10943;48.738;9.320;2022-09-21T13:19:04;2.45;;;0.60;;
21564;SDS011;10943;48.738;9.320;2022-09-21T13:25:01;1.65;;;0.50;;
21564;SDS011;10943;48.738;9.320;2022-09-21T13:36:00;3.28;;;0.98;;
21564;SDS011;10943;48.738;9.320;2022-09-21T13:38:55;2.90;;;0.80;;
21564;SDS011;10943;48.738;9.320;2022-09-21T13:41:48;3.03;;;0.60;;
21564;SDS011;10943;48.738;9.320;2022-09-21T13:47:09;3.92;;;0.70;;
21564;SDS011;10943;48.738;9.320;2022-09-21T13:49:39;2.15;;;0.40;;
21564;SDS011;10943;48.738;9.320;2022-09-21T13:52:19;2.25;;;0.40;;
21564;SDS011;10943;48.738;9.320;2022-09-21T13:55:03;1.80;;;0.50;;
21564;SDS011;10943;48.738;9.320;2022-09-21T13:58:06;1.50;;;0.50;;
21564;SDS011;10943;48.738;9.320;2022-09-21T14:00:54;2.72;;;0.70;;
21564;SDS011;10943;48.738;9.320;2022-09-21T14:03:33;3.05;;;0.60;;
21564;SDS011;10943;48.738;9.320;2022-09-21T14:06:07;2.28;;;0.63;;
21564;SDS011;10943;48.738;9.320;2022-09-21T14:08:53;4.05;;;0.65;;
21564;SDS011;10943;48.738;9.320;2022-09-21T14:16:52;2.20;;;0.70;;
21564;SDS011;10943;48.738;9.320;2022-09-21T14:24:43;2.53;;;0.70;;
21564;SDS011;10943;48.738;9.320;2022-09-21T14:27:17;2.17;;;0.70;;
21564;SDS011;10943;48.738;9.320;2022-09-21T14:35:36;2.38;;;0.68;;
21564;SDS011;10943;48.738;9.320;2022-09-21T14:38:17;3.28;;;0.70;;
21564;SDS011;10943;48.738;9.320;2022-09-21T14:41:07;2.55;;;0.80;;
21564;SDS011;10943;48.738;9.320;2022-09-21T14:43:53;3.25;;;0.50;;
21564;SDS011;10943;48.738;9.320;2022-09-21T14:54:36;2.05;;;0.60;;
21564;SDS011;10943;48.738;9.320;2022-09-21T14:57:32;2.92;;;0.70;;
21564;SDS011;10943;48.738;9.320;2022-09-21T15:00:41;1.77;;;0.47;;
21564;SDS011;10943;48.738;9.320;2022-09-21T15:05:54;2.90;;;0.60;;
21564;SDS011;10943;48.738;9.320;2022-09-21T15:09:32;2.22;;;0.50;;
21564;SDS011;10943;48.738;9.320;2022-09-21T15:12:13;2.08;;;0.47;;
21564;SDS011;10943;48.738;9.320;2022-09-21T15:14:59;1.80;;;0.50;;
21564;SDS011;10943;48.738;9.320;2022-09-21T15:18:15;1.67;;;0.50;;
21564;SDS011;10943;48.738;9.320;2022-09-21T15:20:57;2.10;;;0.50;;
21564;SDS011;10943;48.738;9.320;2022-09-21T15:23:31;1.65;;;0.50;;
21564;SDS011;10943;48.738;9.320;2022-09-21T15:26:06;2.30;;;0.52;;
21564;SDS011;10943;48.738;9.320;2022-09-21T15:28:51;3.40;;;0.73;;
21564;SDS011;10943;48.738;9.320;2022-09-21T15:31:36;2.47;;;0.65;;
21564;SDS011;10943;48.738;9.320;2022-09-21T15:34:08;1.55;;;0.52;;
21564;SDS011;10943;48.738;9.320;2022-09-21T15:36:41;2.42;;;0.60;;
21564;SDS011;10943;48.738;9.320;2022-09-21T15:39:30;2.60;;;0.60;;
21564;SDS011;10943;48.738;9.320;2022-09-21T15:42:15;2.28;;;0.60;;
21564;SDS011;10943;48.738;9.320;2022-09-21T15:44:49;1.40;;;0.35;;
21564;SDS011;10943;48.738;9.320;2022-09-21T15:47:38;2.92;;;0.57;;
21564;SDS011;10943;48.738;9.320;2022-09-21T15:50:11;2.90;;;0.60;;
21564;SDS011;10943;48.738;9.320;2022-09-21T15:52:43;2.20;;;0.60;;
21564;SDS011;10943;48.738;9.320;2022-09-21T15:55:27;2.53;;;0.70;;
21564;SDS011;10943;48.738;9.320;2022-09-21T15:57:56;1.55;;;0.43;;
21564;SDS011;10943;48.738;9.320;2022-09-21T16:00:25;3.22;;;0.80;;
21564;SDS011;10943;48.738;9.320;2022-09-21T16:03:05;2.25;;;0.57;;
21564;SDS011;10943;48.738;9.320;2022-09-21T16:05:46;1.83;;;0.50;;
21564;SDS011;10943;48.738;9.320;2022-09-21T16:08:25;2.42;;;0.60;;
21564;SDS011;10943;48.738;9.320;2022-09-21T16:22:40;2.85;;;0.50;;
21564;SDS011;10943;48.738;9.320;2022-09-21T16:25:29;1.85;;;0.60;;
21564;SDS011;10943;48.738;9.320;2022-09-21T16:30:53;3.58;;;0.73;;
21564;SDS011;10943;48.738;9.320;2022-09-21T16:38:55;3.40;;;0.75;;
21564;SDS011;10943;48.738;9.320;2022-09-21T16:41:28;3.70;;;0.80;;
21564;SDS011;10943;48.738;9.320;2022-09-21T16:44:08;2.92;;;0.80;;
21564;SDS011;10943;48.738;9.320;2022-09-21T16:46:47;2.22;;;0.70;;
21564;SDS011;10943;48.738;9.320;2022-09-21T16:49:24;3.08;;;0.98;;
21564;SDS011;10943;48.738;9.320;2022-09-21T16:51:57;2.30;;;0.80;;
21564;SDS011;10943;48.738;9.320;2022-09-21T16:54:30;4.13;;;2.15;;
21564;SDS011;10943;48.738;9.320;2022-09-21T16:57:00;5.00;;;1.50;;
21564;SDS011;10943;48.738;9.320;2022-09-21T16:59:31;2.55;;;0.85;;
21564;SDS011;10943;48.738;9.320;2022-09-21T17:02:08;2.80;;;0.80;;
21564;SDS011;10943;48.738;9.320;2022-09-21T17:04:39;3.30;;;0.80;;
21564;SDS011;10943;48.738;9.320;2022-09-21T17:07:09;2.50;;;0.80;;
21564;SDS011;10943;48.738;9.320;2022-09-21T17:09:41;3.40;;;1.00;;
21564;SDS011;10943;48.738;9.320;2022-09-21T17:12:15;2.90;;;0.88;;
21564;SDS011;10943;48.738;9.320;2022-09-21T17:14:44;2.97;;;0.90;;
21564;SDS011;10943;48.738;9.320;2022-09-21T17:19:54;3.92;;;1.10;;
21564;SDS011;10943;48.738;9.320;2022-09-21T17:22:22;4.18;;;1.50;;
21564;SDS011;10943;48.738;9.320;2022-09-21T17:24:51;4.63;;;1.20;;
21564;SDS011;10943;48.738;9.320;2022-09-21T17:27:22;4.15;;;1.42;;
21564;SDS011;10943;48.738;9.320;2022-09-21T17:29:55;4.35;;;1.40;;
21564;SDS011;10943;48.738;9.320;2022-09-21T17:32:29;4.13;;;1.63;;
21564;SDS011;10943;48.738;9.320;2022-09-21T17:38:04;3.10;;;1.30;;
21564;SDS011;10943;48.738;9.320;2022-09-21T17:40:39;2.35;;;1.00;;
21564;SDS011;10943;48.738;9.320;2022-09-21T17:45:52;4.10;;;1.50;;
21564;SDS011;10943;48.738;9.320;2022-09-21T17:48:32;2.72;;;1.13;;
21564;SDS011;10943;48.738;9.320;2022-09-21T17:50:59;4.13;;;1.38;;
21564;SDS011;10943;48.738;9.320;2022-09-21T17:53:28;4.97;;;1.20;;
21564;SDS011;10943;48.738;9.320;2022-09-21T17:59:29;3.75;;;1.20;;
21564;SDS011;10943;48.738;9.320;2022-09-21T18:02:23;5.00;;;1.40;;
21564;SDS011;10943;48.738;9.320;2022-09-21T18:04:52;3.28;;;1.20;;
21564;SDS011;10943;48.738;9.320;2022-09-21T18:07:32;4.55;;;1.80;;
21564;SDS011;10943;48.738;9.320;2022-09-21T18:10:00;3.70;;;1.70;;
21564;SDS011;10943;48.738;9.320;2022-09-21T18:13:02;5.68;;;1.83;;
21564;SDS011;10943;48.738;9.320;2022-09-21T18:16:19;4.85;;;2.20;;
21564;SDS011;10943;48.738;9.320;2022-09-21T18:19:02;4.82;;;2.10;;
21564;SDS011;10943;48.738;9.320;2022-09-21T18:21:41;7.68;;;2.50;;
21564;SDS011;10943;48.738;9.320;2022-09-21T18:24:25;5.70;;;2.63;;
21564;SDS011;10943;48.738;9.320;2022-09-21T18:26:58;5.50;;;3.03;;
21564;SDS011;10943;48.738;9.320;2022-09-21T18:29:37;6.47;;;2.75;;
21564;SDS011;10943;48.738;9.320;2022-09-21T18:35:45;6.68;;;2.80;;
21564;SDS011;10943;48.738;9.320;2022-09-21T18:38:55;5.80;;;2.75;;
21564;SDS011;10943;48.738;9.320;2022-09-21T18:46:38;5.00;;;2.40;;
21564;SDS011;10943;48.738;9.320;2022-09-21T18:52:12;5.95;;;2.53;;
21564;SDS011;10943;48.738;9.320;2022-09-21T18:54:55;5.10;;;2.50;;
21564;SDS011;10943;48.738;9.320;2022-09-21T18:57:23;5.78;;;3.00;;
21564;SDS011;10943;48.738;9.320;2022-09-21T19:00:23;7.38;;;3.20;;
21564;SDS011;10943;48.738;9.320;2022-09-21T19:03:01;8.38;;;3.20;;
21564;SDS011;10943;48.738;9.320;2022-09-21T19:11:32;6.80;;;2.92;;
21564;SDS011;10943;48.738;9.320;2022-09-21T19:14:15;7.97;;;3.40;;
21564;SDS011;10943;48.738;9.320;2022-09-21T19:19:44;6.43;;;3.13;;
21564;SDS011;10943;48.738;9.320;2022-09-21T19:25:19;6.85;;;3.05;;
21564;SDS011;10943;48.738;9.320;2022-09-21T19:28:01;7.57;;;3.47;;
21564;SDS011;10943;48.738;9.320;2022-09-21T19:31:13;6.20;;;2.67;;
21564;SDS011;10943;48.738;9.320;2022-09-21T19:33:45;8.05;;;3.47;;
21564;SDS011;10943;48.738;9.320;2022-09-21T19:36:18;7.55;;;3.60;;
21564;SDS011;10943;48.738;9.320;2022-09-21T19:38:51;8.88;;;3.88;;
21564;SDS011;10943;48.738;9.320;2022-09-21T19:41:27;7.68;;;3.67;;
21564;SDS011;10943;48.738;9.320;2022-09-21T19:44:28;7.57;;;3.53;;
21564;SDS011;10943;48.738;9.320;2022-09-21T19:54:33;9.00;;;4.43;;